createdAt,value
2022-08-12T01:37:22.298Z,6.35
2022-08-12T07:06:39.019Z,4.57
2022-08-12T07:10:54.419Z,4.25
2022-08-12T07:27:06.793Z,4.55
2022-08-12T07:31:09.260Z,5.05
2022-08-12T07:35:10.965Z,3.90
2022-08-12T07:39:13.514Z,4.90
2022-08-12T07:43:15.252Z,6.28
2022-08-12T07:47:18.200Z,5.00
2022-08-12T07:51:24.727Z,5.10
2022-08-12T07:55:28.459Z,4.60
2022-08-12T07:59:33.990Z,5.95
2022-08-12T08:03:36.728Z,6.18
2022-08-12T08:07:50.112Z,5.57
2022-08-12T08:12:19.678Z,6.82
2022-08-12T08:16:21.744Z,5.30
2022-08-12T08:24:31.385Z,4.45
2022-08-12T08:28:36.012Z,4.72
2022-08-12T08:36:40.205Z,4.95
2022-08-12T08:53:18.002Z,5.20
2022-08-12T08:57:20.501Z,4.97
2022-08-12T09:01:22.644Z,7.20
2022-08-12T09:05:25.745Z,5.40
2022-08-12T09:09:34.238Z,6.05
2022-08-12T09:14:11.913Z,4.35
2022-08-12T09:18:11.769Z,4.82
2022-08-12T09:22:18.491Z,3.83
2022-08-12T09:26:22.808Z,5.50
2022-08-12T09:30:42.121Z,5.82
2022-08-12T09:34:50.786Z,4.55
2022-08-12T09:38:58.832Z,5.07
2022-08-12T09:43:20.988Z,6.07
2022-08-12T09:47:29.319Z,6.35
2022-08-12T09:51:38.385Z,3.60
2022-08-12T09:55:59.689Z,4.25
2022-08-12T10:00:17.091Z,5.90
2022-08-12T10:04:20.911Z,4.78
2022-08-12T10:08:27.366Z,6.40
2022-08-12T10:13:07.983Z,6.53
2022-08-12T10:17:09.424Z,4.10
2022-08-12T10:21:19.482Z,6.22
2022-08-12T10:26:25.743Z,4.68
2022-08-12T10:30:39.825Z,5.35
2022-08-12T10:34:26.564Z,4.13
2022-08-12T10:38:39.021Z,6.22
2022-08-12T10:43:01.619Z,6.25
2022-08-12T10:47:25.917Z,4.63
2022-08-12T10:52:04.571Z,4.60
2022-08-12T11:04:39.301Z,4.68
2022-08-12T11:08:46.336Z,5.78
2022-08-12T11:12:58.461Z,5.45
2022-08-12T11:17:43.799Z,6.05
2022-08-12T11:21:56.326Z,4.85
2022-08-12T11:25:57.450Z,3.92
2022-08-12T11:30:05.444Z,5.30
2022-08-12T11:34:51.988Z,5.93
2022-08-12T11:38:30.660Z,5.05
2022-08-12T11:42:32.700Z,4.80
2022-08-12T11:46:41.623Z,4.68
2022-08-12T11:50:43.961Z,4.82
2022-08-12T11:54:51.033Z,4.95
2022-08-12T12:01:58.170Z,6.03
2022-08-12T12:03:17.328Z,6.68
2022-08-12T12:07:19.099Z,5.95
2022-08-12T12:11:22.420Z,4.20
2022-08-12T12:15:25.132Z,6.25
2022-08-12T12:19:46.175Z,4.47
2022-08-12T12:23:48.290Z,3.80
2022-08-12T12:28:04.352Z,4.47
2022-08-12T12:32:10.556Z,4.68
2022-08-12T12:36:20.275Z,4.93
2022-08-12T12:40:29.818Z,10.30
2022-08-12T12:44:41.898Z,4.55
2022-08-12T12:48:52.456Z,6.43
2022-08-12T12:52:54.472Z,10.18
2022-08-12T12:56:56.153Z,5.05
2022-08-12T13:01:01.258Z,5.00
2022-08-12T13:05:13.712Z,4.63
2022-08-12T13:09:15.818Z,3.97
2022-08-12T13:14:08.941Z,5.57
2022-08-12T13:18:03.280Z,5.82
2022-08-12T13:22:19.680Z,6.18
2022-08-12T13:26:22.448Z,5.38
2022-08-12T13:30:26.738Z,6.10
2022-08-12T13:34:34.838Z,5.20
2022-08-12T13:38:38.902Z,5.53
2022-08-12T13:42:40.761Z,4.68
2022-08-12T13:46:42.724Z,4.45
2022-08-12T13:50:44.432Z,5.13
2022-08-12T13:54:54.140Z,5.13
2022-08-12T13:58:59.559Z,4.43
2022-08-12T14:03:02.975Z,3.92
2022-08-12T14:07:08.213Z,5.13
2022-08-12T14:11:13.162Z,6.40
2022-08-12T14:15:15.621Z,6.20
2022-08-12T14:19:24.982Z,5.95
2022-08-12T14:24:04.676Z,5.18
2022-08-12T14:28:04.026Z,5.45
2022-08-12T14:32:07.869Z,4.80
2022-08-12T14:36:24.003Z,4.57
2022-08-12T14:40:30.134Z,6.18
2022-08-12T14:48:54.607Z,6.55
2022-08-12T14:57:20.110Z,9.05
2022-08-12T15:01:41.747Z,5.45
2022-08-12T15:06:05.201Z,5.15
2022-08-12T15:10:06.634Z,4.07
2022-08-12T15:14:09.514Z,5.03
2022-08-12T15:18:14.259Z,5.22
2022-08-12T15:22:37.982Z,5.07
2022-08-12T15:26:41.041Z,6.38
2022-08-12T15:30:42.802Z,7.10
2022-08-12T15:34:44.552Z,4.32
2022-08-12T15:38:51.497Z,4.97
2022-08-12T15:42:54.444Z,6.35
2022-08-12T15:46:56.120Z,6.00
2022-08-12T15:50:57.814Z,5.07
2022-08-12T15:55:06.574Z,5.63
2022-08-12T15:59:15.395Z,4.78
2022-08-12T16:03:28.596Z,3.97
2022-08-12T16:07:49.450Z,4.28
2022-08-12T16:11:52.192Z,7.45
2022-08-12T16:16:02.515Z,4.72
2022-08-12T16:20:06.425Z,5.82
2022-08-12T16:24:08.242Z,4.20
2022-08-12T16:28:12.537Z,4.38
2022-08-12T16:32:19.373Z,4.50
2022-08-12T16:36:21.122Z,5.13
2022-08-12T16:40:22.845Z,4.88
2022-08-12T16:44:32.492Z,5.40
2022-08-12T16:48:37.787Z,5.07
2022-08-12T16:52:47.542Z,3.45
2022-08-12T16:56:57.475Z,3.80
2022-08-12T17:01:03.656Z,3.67
2022-08-12T17:05:06.837Z,4.53
2022-08-12T17:09:17.146Z,5.97
2022-08-12T17:13:20.802Z,5.38
2022-08-12T17:17:26.346Z,4.68
2022-08-12T17:22:01.772Z,3.80
2022-08-12T17:26:05.380Z,5.75
2022-08-12T17:30:09.800Z,4.18
2022-08-12T17:34:38.549Z,3.45
2022-08-12T17:38:40.585Z,4.63
2022-08-12T17:42:43.580Z,3.83
2022-08-12T17:46:53.606Z,3.53
2022-08-12T17:50:56.971Z,3.58
2022-08-12T17:55:01.358Z,3.30
2022-08-12T17:59:03.599Z,3.58
2022-08-12T18:03:09.701Z,4.75
2022-08-12T18:07:13.217Z,5.57
2022-08-12T18:12:04.241Z,5.22
2022-08-12T18:16:05.286Z,5.97
2022-08-12T18:20:15.797Z,7.05
2022-08-12T18:24:22.056Z,4.40
2022-08-12T18:28:29.133Z,4.25
2022-08-12T18:32:53.602Z,7.07
2022-08-12T18:36:59.549Z,5.03
2022-08-12T18:41:35.819Z,5.68
2022-08-12T18:45:46.894Z,8.73
2022-08-12T18:49:58.794Z,12.65
2022-08-12T18:54:06.597Z,12.48
2022-08-12T18:58:13.910Z,10.30
2022-08-12T19:02:23.825Z,6.77
2022-08-12T19:06:28.471Z,7.72
2022-08-12T19:10:31.647Z,13.10
2022-08-12T19:14:35.485Z,12.73
2022-08-12T19:18:40.404Z,12.90
2022-08-12T19:22:42.347Z,12.00
2022-08-12T19:27:03.796Z,9.20
